Time;durP1;ratioP1;P1;durP2;ratioP2;P2;SDS_P1;SDS_P2;PMS_P1;PMS_P2;Temp;Humidity;BMP_temperature;BMP_pressure;BME280_temperature;BME280_humidity;BME280_pressure;Samples;Min_cycle;Max_cycle;Signal;HPM_P1;HPM_P2
2024/01/31 00:01:35;;;;;;;12.95;7.47;;;7.90;99.90;;;;;;5093252;28;20170;-55
2024/01/31 00:04:01;;;;;;;11.77;6.45;;;7.80;99.90;;;;;;5093005;28;20663;-55
2024/01/31 00:06:27;;;;;;;10.05;6.63;;;7.80;99.90;;;;;;5092358;28;20523;-53
2024/01/31 00:08:52;;;;;;;11.65;6.43;;;7.80;99.90;;;;;;5092049;28;20191;-53
2024/01/31 00:11:19;;;;;;;11.90;8.05;;;7.80;99.90;;;;;;5092143;28;20672;-53
2024/01/31 00:13:44;;;;;;;10.95;7.70;;;7.80;99.90;;;;;;5091609;28;20565;-53
2024/01/31 00:16:12;;;;;;;14.07;8.25;;;7.80;99.90;;;;;;5091117;28;20180;-55
2024/01/31 00:18:38;;;;;;;9.43;6.75;;;7.80;99.90;;;;;;5092174;28;20158;-53
2024/01/31 00:21:04;;;;;;;15.48;8.15;;;7.80;99.90;;;;;;5092703;28;20180;-53
2024/01/31 00:23:29;;;;;;;15.00;7.60;;;7.80;99.90;;;;;;5092078;28;20247;-54
2024/01/31 00:25:55;;;;;;;10.77;7.75;;;7.70;99.90;;;;;;5091937;28;20533;-52
2024/01/31 00:28:20;;;;;;;13.45;7.65;;;7.70;99.90;;;;;;5091869;28;20165;-53
2024/01/31 00:30:46;;;;;;;13.38;7.97;;;7.80;99.90;;;;;;5091637;28;20201;-53
2024/01/31 00:33:12;;;;;;;13.75;8.40;;;7.70;99.90;;;;;;5091791;28;20238;-54
2024/01/31 00:35:37;;;;;;;16.77;8.05;;;7.80;99.90;;;;;;5091719;28;20181;-53
2024/01/31 00:38:03;;;;;;;15.00;8.13;;;7.70;99.90;;;;;;5092311;28;20177;-55
2024/01/31 00:40:28;;;;;;;13.48;8.52;;;7.70;99.90;;;;;;5091761;28;20157;-53
2024/01/31 00:42:54;;;;;;;15.85;8.25;;;7.80;99.90;;;;;;5091729;28;20177;-55
2024/01/31 00:45:20;;;;;;;11.68;7.90;;;7.70;99.90;;;;;;5091367;28;20165;-54
2024/01/31 00:47:45;;;;;;;11.98;8.10;;;7.70;99.90;;;;;;5091315;28;20180;-54
2024/01/31 00:50:12;;;;;;;15.15;8.77;;;7.70;99.90;;;;;;5091228;28;20296;-55
2024/01/31 00:52:39;;;;;;;14.65;9.10;;;7.70;99.90;;;;;;5091625;28;20226;-55
2024/01/31 00:55:06;;;;;;;12.98;8.70;;;7.70;99.90;;;;;;5090797;28;20169;-55
2024/01/31 00:57:31;;;;;;;15.00;9.18;;;7.70;99.90;;;;;;5090285;28;20258;-52
2024/01/31 00:59:57;;;;;;;15.43;8.95;;;7.70;99.90;;;;;;5089815;28;20628;-51
2024/01/31 01:02:22;;;;;;;14.73;9.32;;;7.70;99.90;;;;;;5090509;28;20315;-53
2024/01/31 01:04:48;;;;;;;18.35;10.27;;;7.70;99.90;;;;;;5091282;28;20165;-53
2024/01/31 01:07:14;;;;;;;16.45;10.20;;;7.70;99.90;;;;;;5091321;28;20522;-52
2024/01/31 01:09:39;;;;;;;15.95;10.13;;;7.80;99.90;;;;;;5091300;28;20295;-53
2024/01/31 01:12:05;;;;;;;17.70;10.07;;;7.70;99.90;;;;;;5091490;28;20201;-55
2024/01/31 01:14:30;;;;;;;17.00;10.15;;;7.80;99.90;;;;;;5090758;28;20161;-55
2024/01/31 01:16:56;;;;;;;19.02;11.50;;;7.70;99.90;;;;;;5090805;28;20176;-55
2024/01/31 01:19:21;;;;;;;22.00;11.85;;;7.80;99.90;;;;;;5090735;28;20712;-56
2024/01/31 01:21:47;;;;;;;18.80;10.63;;;7.80;99.90;;;;;;5090598;28;20179;-56
2024/01/31 01:24:13;;;;;;;17.52;10.48;;;7.80;99.90;;;;;;5090636;28;20173;-56
2024/01/31 01:26:41;;;;;;;15.25;10.43;;;7.80;99.90;;;;;;5089994;28;20169;-55
2024/01/31 01:29:07;;;;;;;16.52;11.02;;;7.80;99.90;;;;;;5090572;28;20688;-55
2024/01/31 01:31:33;;;;;;;19.45;11.30;;;7.90;99.90;;;;;;5090909;28;20216;-55
2024/01/31 01:33:59;;;;;;;18.73;11.30;;;7.90;99.90;;;;;;5090373;28;20169;-55
2024/01/31 01:36:25;;;;;;;20.58;11.57;;;7.90;99.90;;;;;;5090210;28;20174;-54
2024/01/31 01:38:51;;;;;;;17.75;12.13;;;7.80;99.90;;;;;;5090323;28;20206;-54
2024/01/31 01:41:16;;;;;;;20.63;12.68;;;7.80;99.90;;;;;;5090449;28;20173;-54
2024/01/31 01:43:42;;;;;;;20.67;12.43;;;7.80;99.90;;;;;;5090367;28;20171;-52
2024/01/31 01:46:20;;;;;;;21.15;12.40;;;7.80;99.90;;;;;;5090548;28;20162;-53
2024/01/31 01:48:46;;;;;;;19.65;12.23;;;7.80;99.90;;;;;;5090247;28;20211;-54
2024/01/31 01:51:17;;;;;;;21.70;13.35;;;7.70;99.90;;;;;;5090270;28;20232;-54
2024/01/31 01:53:44;;;;;;;22.50;14.57;;;7.80;99.90;;;;;;5090375;28;20260;-53
2024/01/31 01:56:11;;;;;;;21.92;13.07;;;7.70;99.90;;;;;;5090321;28;20690;-54
2024/01/31 01:58:36;;;;;;;23.38;14.68;;;7.70;99.90;;;;;;5089862;28;20236;-54
2024/01/31 02:01:03;;;;;;;27.70;15.55;;;7.80;99.90;;;;;;5090392;28;20177;-53
2024/01/31 02:03:31;;;;;;;22.45;13.93;;;7.70;99.90;;;;;;5090540;28;20314;-54
2024/01/31 02:05:58;;;;;;;25.10;14.40;;;7.80;99.90;;;;;;5090260;28;20173;-52
2024/01/31 02:08:25;;;;;;;23.98;15.00;;;7.80;99.90;;;;;;5089691;28;20166;-54
2024/01/31 02:10:51;;;;;;;26.73;15.48;;;7.70;99.90;;;;;;5090054;28;20291;-54
2024/01/31 02:13:16;;;;;;;25.13;15.13;;;7.80;99.90;;;;;;5089901;28;20319;-53
2024/01/31 02:15:55;;;;;;;25.42;14.77;;;7.80;99.90;;;;;;5089995;28;20223;-53
2024/01/31 02:18:22;;;;;;;23.25;15.20;;;7.80;99.90;;;;;;5089650;28;20503;-53
2024/01/31 02:20:48;;;;;;;23.13;14.40;;;7.20;99.90;;;;;;5089804;28;20660;-54
2024/01/31 02:23:14;;;;;;;26.10;15.68;;;7.70;99.90;;;;;;5088511;28;20173;-53
2024/01/31 02:25:39;;;;;;;29.48;16.05;;;7.80;99.90;;;;;;5090098;28;20168;-54
2024/01/31 02:28:05;;;;;;;24.50;17.20;;;7.70;99.90;;;;;;5089936;28;20169;-54
2024/01/31 02:30:31;;;;;;;25.20;15.73;;;7.70;99.90;;;;;;5089882;28;20291;-53
2024/01/31 02:32:56;;;;;;;26.25;16.40;;;7.70;99.90;;;;;;5089549;28;20173;-55
2024/01/31 02:35:23;;;;;;;28.55;16.92;;;7.70;99.90;;;;;;5089727;28;20882;-54
2024/01/31 02:37:49;;;;;;;28.98;17.77;;;7.70;99.90;;;;;;5089020;28;20168;-53
2024/01/31 02:40:15;;;;;;;30.27;17.67;;;7.70;99.90;;;;;;5089840;28;20161;-52
2024/01/31 02:42:41;;;;;;;25.00;17.40;;;7.70;99.90;;;;;;5089668;28;20193;-53
2024/01/31 02:45:07;;;;;;;29.00;17.50;;;7.70;99.90;;;;;;5089737;28;20170;-55
2024/01/31 02:47:35;;;;;;;28.98;17.60;;;7.70;99.90;;;;;;5090023;28;20195;-54
2024/01/31 02:50:02;;;;;;;27.75;17.65;;;7.70;99.90;;;;;;5089897;28;20222;-53
2024/01/31 02:52:28;;;;;;;33.05;17.90;;;7.70;99.90;;;;;;5089151;28;20173;-53
2024/01/31 02:54:53;;;;;;;31.42;18.83;;;7.60;99.90;;;;;;5089474;28;20237;-53
2024/01/31 02:57:19;;;;;;;33.65;18.85;;;7.60;99.90;;;;;;5089176;28;20244;-53
2024/01/31 02:59:45;;;;;;;29.55;18.23;;;7.70;99.90;;;;;;5089309;28;20173;-53
2024/01/31 03:02:10;;;;;;;29.52;17.55;;;7.70;99.90;;;;;;5089724;28;20172;-55
2024/01/31 03:04:36;;;;;;;28.77;18.75;;;7.70;99.90;;;;;;5089213;28;20648;-53
2024/01/31 03:07:02;;;;;;;33.22;18.92;;;7.80;99.90;;;;;;5089641;28;20193;-54
2024/01/31 03:09:27;;;;;;;34.35;18.23;;;7.80;99.90;;;;;;5089459;28;20184;-55
2024/01/31 03:11:53;;;;;;;31.88;18.75;;;7.80;99.90;;;;;;5089567;28;20221;-55
2024/01/31 03:14:19;;;;;;;33.90;19.58;;;7.80;99.90;;;;;;5089054;28;20173;-55
2024/01/31 03:16:45;;;;;;;36.35;19.50;;;7.70;99.90;;;;;;5089174;28;20268;-54
2024/01/31 03:19:10;;;;;;;33.28;19.75;;;7.80;99.90;;;;;;5089324;28;20166;-55
2024/01/31 03:21:36;;;;;;;37.40;20.35;;;7.80;99.90;;;;;;5089439;28;20637;-54
2024/01/31 03:24:02;;;;;;;35.90;21.55;;;7.70;99.90;;;;;;5089977;28;20205;-56
2024/01/31 03:26:28;;;;;;;31.92;20.05;;;7.80;99.90;;;;;;5089128;28;20668;-56
2024/01/31 03:28:54;;;;;;;35.47;20.17;;;7.80;99.90;;;;;;5089051;28;20252;-56
2024/01/31 03:31:19;;;;;;;35.35;19.88;;;7.70;99.90;;;;;;5089500;28;20215;-55
2024/01/31 03:33:45;;;;;;;34.78;19.65;;;7.80;99.90;;;;;;5089475;28;20245;-55
2024/01/31 03:36:11;;;;;;;34.53;20.90;;;7.80;99.90;;;;;;5089235;28;20200;-56
2024/01/31 03:38:38;;;;;;;36.42;20.35;;;7.80;99.90;;;;;;5089290;28;20165;-55
2024/01/31 03:41:07;;;;;;;33.78;20.77;;;7.80;99.90;;;;;;5090064;28;20246;-56
2024/01/31 03:43:33;;;;;;;38.15;20.25;;;7.80;99.90;;;;;;5089954;28;20212;-56
2024/01/31 03:46:00;;;;;;;37.38;20.67;;;7.70;99.90;;;;;;5088953;28;20204;-54
2024/01/31 03:48:27;;;;;;;38.83;20.70;;;7.80;99.90;;;;;;5088990;28;20245;-56
2024/01/31 03:50:52;;;;;;;38.17;21.15;;;7.70;99.90;;;;;;5092350;28;20220;-55
2024/01/31 03:53:18;;;;;;;27.17;15.23;;;7.70;99.90;;;;;;5092338;28;20185;-55
2024/01/31 03:55:44;;;;;;;21.30;13.32;;;7.70;99.90;;;;;;5092371;28;20667;-55
2024/01/31 03:58:10;;;;;;;24.63;13.95;;;7.70;99.90;;;;;;5092436;28;20221;-55
2024/01/31 04:00:35;;;;;;;21.75;12.57;;;7.60;99.90;;;;;;5093084;28;20590;-55
2024/01/31 04:03:01;;;;;;;20.80;12.43;;;7.60;99.90;;;;;;5092732;28;20214;-55
2024/01/31 04:05:26;;;;;;;21.60;12.13;;;7.60;99.90;;;;;;5092310;28;20577;-56
2024/01/31 04:07:52;;;;;;;22.75;11.95;;;7.60;99.90;;;;;;5092163;28;20181;-54
2024/01/31 04:10:17;;;;;;;22.48;12.27;;;7.50;99.90;;;;;;5092139;28;20288;-55
2024/01/31 04:12:43;;;;;;;21.30;10.77;;;7.50;99.90;;;;;;5092099;28;20185;-56
2024/01/31 04:15:09;;;;;;;14.05;8.02;;;7.40;99.90;;;;;;5091930;28;20165;-54
2024/01/31 04:17:34;;;;;;;11.68;6.70;;;7.40;99.90;;;;;;5092466;28;20247;-55
2024/01/31 04:20:00;;;;;;;10.15;5.80;;;7.40;99.90;;;;;;5092071;28;20257;-56
2024/01/31 04:22:25;;;;;;;10.52;5.22;;;7.30;99.90;;;;;;5091679;28;20628;-56
2024/01/31 04:24:52;;;;;;;9.70;3.80;;;7.30;99.90;;;;;;5091911;28;20153;-56
2024/01/31 04:27:17;;;;;;;10.15;4.18;;;7.20;99.90;;;;;;5090504;28;20181;-55
2024/01/31 04:29:43;;;;;;;8.63;3.60;;;7.20;99.90;;;;;;5091709;28;20174;-56
2024/01/31 04:32:08;;;;;;;11.43;4.13;;;7.20;99.90;;;;;;5091807;28;20216;-55
2024/01/31 04:34:40;;;;;;;6.57;4.18;;;7.20;99.90;;;;;;5092401;28;20287;-56
2024/01/31 04:37:06;;;;;;;11.25;4.53;;;7.10;99.90;;;;;;5092220;28;20244;-56
2024/01/31 04:39:31;;;;;;;7.18;3.92;;;7.20;99.90;;;;;;5092436;28;20862;-53
2024/01/31 04:41:57;;;;;;;10.65;3.95;;;7.20;99.90;;;;;;5091877;28;20169;-53
2024/01/31 04:44:22;;;;;;;7.55;3.33;;;7.20;99.90;;;;;;5091922;28;20203;-52
2024/01/31 04:46:49;;;;;;;6.60;3.00;;;7.20;99.90;;;;;;5091647;28;20522;-52
2024/01/31 04:49:15;;;;;;;9.02;3.90;;;7.20;99.90;;;;;;5091341;28;20176;-52
2024/01/31 04:51:41;;;;;;;7.93;2.95;;;7.20;99.90;;;;;;5091590;28;20200;-52
2024/01/31 04:54:07;;;;;;;6.47;2.95;;;7.30;99.90;;;;;;5091847;28;20188;-55
2024/01/31 04:56:33;;;;;;;8.23;3.00;;;7.20;99.90;;;;;;5091924;28;20545;-53
2024/01/31 04:58:59;;;;;;;8.35;2.95;;;7.20;99.90;;;;;;5091463;28;20252;-53
2024/01/31 05:01:24;;;;;;;7.05;2.58;;;7.20;99.90;;;;;;5090194;28;20589;-53
2024/01/31 05:03:50;;;;;;;5.40;2.40;;;7.20;99.90;;;;;;5091072;28;20176;-52
2024/01/31 05:06:15;;;;;;;5.97;2.40;;;7.20;99.90;;;;;;5091303;28;20177;-53
2024/01/31 05:08:41;;;;;;;5.15;2.40;;;7.20;99.90;;;;;;5090911;28;20248;-53
2024/01/31 05:11:06;;;;;;;4.47;2.13;;;7.20;99.90;;;;;;5091001;28;20277;-53
2024/01/31 05:13:32;;;;;;;3.35;1.98;;;7.20;99.90;;;;;;5091558;28;20180;-52
2024/01/31 05:15:58;;;;;;;2.63;1.75;;;7.20;99.90;;;;;;5091500;28;20252;-52
2024/01/31 05:18:23;;;;;;;3.92;2.10;;;7.20;99.90;;;;;;5090737;28;20167;-54
2024/01/31 05:20:49;;;;;;;7.18;2.92;;;7.20;99.90;;;;;;5090812;28;20173;-54
2024/01/31 05:23:15;;;;;;;3.35;1.83;;;7.30;99.90;;;;;;5090956;28;20170;-54
2024/01/31 05:25:40;;;;;;;7.78;2.92;;;7.30;99.90;;;;;;5091178;28;20173;-55
2024/01/31 05:28:06;;;;;;;5.15;2.53;;;7.30;99.90;;;;;;5090941;28;20166;-53
2024/01/31 05:30:31;;;;;;;8.60;2.83;;;7.20;99.90;;;;;;5091264;28;20201;-53
2024/01/31 05:32:57;;;;;;;5.40;2.80;;;7.20;99.90;;;;;;5090860;28;20177;-53
2024/01/31 05:35:23;;;;;;;5.25;2.58;;;7.20;99.90;;;;;;5104452;28;20237;-53
2024/01/31 05:37:48;;;;;;;5.82;2.97;;;7.20;99.90;;;;;;5110976;28;20229;-56
2024/01/31 05:40:16;;;;;;;7.35;3.28;;;7.20;99.90;;;;;;5110646;28;20188;-56
2024/01/31 05:42:42;;;;;;;8.45;2.95;;;7.20;99.90;;;;;;5110925;28;20177;-56
2024/01/31 05:45:08;;;;;;;6.55;2.88;;;7.20;99.90;;;;;;5110593;28;20173;-56
2024/01/31 05:47:35;;;;;;;7.95;3.03;;;7.20;99.90;;;;;;5111046;28;20243;-56
2024/01/31 05:50:01;;;;;;;6.65;2.90;;;7.20;99.90;;;;;;5111087;28;20506;-54
2024/01/31 05:52:26;;;;;;;6.93;3.28;;;7.20;99.90;;;;;;5110422;28;20217;-56
2024/01/31 05:54:52;;;;;;;5.07;3.13;;;7.20;99.90;;;;;;5110408;28;20199;-57
2024/01/31 05:57:18;;;;;;;5.53;3.15;;;7.20;99.90;;;;;;5110062;28;20217;-53
2024/01/31 05:59:43;;;;;;;5.25;3.13;;;7.30;99.90;;;;;;5110295;28;20251;-53
2024/01/31 06:02:09;;;;;;;4.47;3.08;;;7.20;99.90;;;;;;5110523;28;20236;-56
2024/01/31 06:04:34;;;;;;;6.43;2.80;;;7.20;99.90;;;;;;5110786;28;20161;-57
2024/01/31 06:07:00;;;;;;;6.32;3.28;;;7.20;99.90;;;;;;5110282;28;20612;-56
2024/01/31 06:09:26;;;;;;;5.82;2.95;;;7.20;99.90;;;;;;5110183;28;20169;-56
2024/01/31 06:11:52;;;;;;;6.55;3.17;;;7.20;99.90;;;;;;5109934;28;20196;-53
2024/01/31 06:14:17;;;;;;;10.43;2.92;;;7.10;99.90;;;;;;5110086;28;20517;-55
2024/01/31 06:16:43;;;;;;;3.53;2.47;;;7.10;99.90;;;;;;5110050;28;20233;-54
2024/01/31 06:19:08;;;;;;;6.88;2.70;;;7.10;99.90;;;;;;5110335;28;20180;-53
2024/01/31 06:21:34;;;;;;;6.18;2.75;;;7.00;99.90;;;;;;5110795;28;20173;-52
2024/01/31 06:23:59;;;;;;;5.10;2.60;;;7.00;99.90;;;;;;5110250;28;20195;-53
2024/01/31 06:26:28;;;;;;;7.15;2.80;;;7.00;99.90;;;;;;5109948;28;20244;-53
2024/01/31 06:28:54;;;;;;;6.70;3.10;;;7.00;99.90;;;;;;5110040;28;20168;-53
2024/01/31 06:31:28;;;;;;;8.55;3.65;;;7.00;99.90;;;;;;5109771;28;20682;-53
2024/01/31 06:33:53;;;;;;;6.25;2.95;;;7.00;99.90;;;;;;5109757;28;20180;-53
2024/01/31 06:36:20;;;;;;;6.28;3.42;;;7.00;99.90;;;;;;5109740;28;20168;-54
2024/01/31 06:38:46;;;;;;;10.77;3.20;;;7.00;99.90;;;;;;5108888;28;20164;-50
2024/01/31 06:41:14;;;;;;;8.80;3.88;;;7.10;99.90;;;;;;5109914;28;20172;-48
2024/01/31 06:43:39;;;;;;;7.95;2.75;;;7.20;99.90;;;;;;5109953;28;20568;-48
2024/01/31 06:46:05;;;;;;;5.57;3.13;;;7.20;99.90;;;;;;5109765;28;20200;-48
2024/01/31 06:48:31;;;;;;;6.68;2.67;;;7.10;99.90;;;;;;5109969;28;20156;-47
2024/01/31 06:50:56;;;;;;;8.15;3.13;;;7.10;99.90;;;;;;5109510;28;20300;-47
2024/01/31 06:53:22;;;;;;;6.75;3.25;;;7.10;99.90;;;;;;5109485;28;20188;-49
2024/01/31 06:55:47;;;;;;;4.13;2.58;;;7.20;99.90;;;;;;5108274;28;20233;-48
2024/01/31 06:58:13;;;;;;;6.93;3.25;;;7.10;99.90;;;;;;5109507;28;20276;-46
2024/01/31 07:00:39;;;;;;;5.43;2.83;;;7.10;99.90;;;;;;5110317;28;20180;-46
2024/01/31 07:03:04;;;;;;;10.35;4.68;;;7.10;99.90;;;;;;5110347;28;20163;-54
2024/01/31 07:05:30;;;;;;;9.30;3.92;;;7.10;99.90;;;;;;5110622;28;20168;-58
2024/01/31 07:07:55;;;;;;;6.90;3.20;;;7.10;99.90;;;;;;5109702;28;20294;-54
2024/01/31 07:10:21;;;;;;;8.30;3.15;;;7.10;99.90;;;;;;5109676;28;20556;-54
2024/01/31 07:12:47;;;;;;;6.32;3.53;;;7.00;99.90;;;;;;5109609;28;20180;-54
2024/01/31 07:15:14;;;;;;;10.38;4.28;;;7.10;99.90;;;;;;5109806;28;20168;-54
2024/01/31 07:17:39;;;;;;;5.40;3.50;;;7.10;99.90;;;;;;5109523;28;20255;-65
2024/01/31 07:20:06;;;;;;;7.80;2.95;;;7.10;99.90;;;;;;5109370;28;20290;-60
2024/01/31 07:22:32;;;;;;;6.40;2.80;;;7.10;99.90;;;;;;5109866;28;20176;-73
2024/01/31 07:24:57;;;;;;;4.05;3.13;;;7.20;99.90;;;;;;5111974;28;20188;-57
2024/01/31 07:27:23;;;;;;;6.63;2.47;;;7.10;99.90;;;;;;5113247;28;20165;-54
2024/01/31 07:29:48;;;;;;;6.35;3.92;;;7.10;99.90;;;;;;5113133;28;20192;-51
2024/01/31 07:32:14;;;;;;;10.15;5.15;;;7.10;99.90;;;;;;5113452;28;20207;-51
2024/01/31 07:34:39;;;;;;;4.80;2.90;;;7.10;99.90;;;;;;5113111;28;20258;-53
2024/01/31 07:37:05;;;;;;;8.73;2.97;;;7.10;99.90;;;;;;5112948;28;20226;-57
2024/01/31 07:39:31;;;;;;;5.80;2.92;;;7.10;99.90;;;;;;5113843;28;20169;-57
2024/01/31 07:41:57;;;;;;;7.18;3.00;;;7.10;99.90;;;;;;5113048;28;20221;-56
2024/01/31 07:44:22;;;;;;;6.50;3.15;;;7.10;99.90;;;;;;5113288;28;20701;-56
2024/01/31 07:46:48;;;;;;;9.85;5.40;;;7.10;99.90;;;;;;5112959;28;20616;-57
2024/01/31 07:49:13;;;;;;;8.63;3.83;;;7.20;99.90;;;;;;5113097;28;20172;-59
2024/01/31 07:51:43;;;;;;;8.60;4.38;;;7.20;99.90;;;;;;5112848;28;20675;-55
2024/01/31 07:54:09;;;;;;;11.73;5.55;;;7.20;99.90;;;;;;5112771;28;20157;-55
2024/01/31 07:56:35;;;;;;;3.95;3.45;;;7.20;99.90;;;;;;5112634;28;20600;-51
2024/01/31 07:59:00;;;;;;;4.53;2.70;;;7.20;99.90;;;;;;5113226;28;20506;-56
2024/01/31 08:01:26;;;;;;;7.03;3.47;;;7.20;99.90;;;;;;5112583;28;20180;-57
2024/01/31 08:03:52;;;;;;;12.57;6.32;;;7.20;99.90;;;;;;5112663;28;20268;-54
2024/01/31 08:06:18;;;;;;;6.38;4.20;;;7.20;99.90;;;;;;5111315;28;20168;-52
2024/01/31 08:08:45;;;;;;;11.30;5.10;;;7.10;99.90;;;;;;5112540;28;20161;-59
2024/01/31 08:11:11;;;;;;;10.57;5.30;;;7.20;99.90;;;;;;5112607;28;20570;-51
2024/01/31 08:13:40;;;;;;;14.35;7.45;;;7.20;99.90;;;;;;5111106;28;20161;-55
2024/01/31 08:16:06;;;;;;;10.30;6.80;;;7.30;99.90;;;;;;5112316;28;20161;-57
2024/01/31 08:18:31;;;;;;;17.02;8.48;;;7.30;99.90;;;;;;5113008;28;20179;-50
2024/01/31 08:20:57;;;;;;;16.13;8.75;;;7.30;99.90;;;;;;5112567;28;20165;-53
2024/01/31 08:23:23;;;;;;;13.95;7.55;;;7.30;99.90;;;;;;5112238;28;20177;-48
2024/01/31 08:25:49;;;;;;;17.63;8.07;;;7.30;99.90;;;;;;5112420;28;20196;-55
2024/01/31 08:28:14;;;;;;;14.43;6.97;;;7.30;99.90;;;;;;5112127;28;20173;-52
2024/01/31 08:30:40;;;;;;;14.10;6.82;;;7.40;99.90;;;;;;5112084;28;20677;-51
2024/01/31 08:33:05;;;;;;;13.32;6.53;;;7.30;99.90;;;;;;5112106;28;20271;-47
2024/01/31 08:35:31;;;;;;;16.45;7.45;;;7.40;99.90;;;;;;5111324;28;20560;-53
2024/01/31 08:37:56;;;;;;;17.73;9.10;;;7.40;99.90;;;;;;5111919;28;20188;-53
2024/01/31 08:40:22;;;;;;;16.20;9.27;;;7.40;99.90;;;;;;5112196;28;20534;-59
2024/01/31 08:42:48;;;;;;;19.48;10.95;;;7.50;99.90;;;;;;5112033;28;20248;-52
2024/01/31 08:45:14;;;;;;;22.52;11.85;;;7.50;99.90;;;;;;5111824;28;20169;-51
2024/01/31 08:47:40;;;;;;;23.55;12.18;;;7.50;99.90;;;;;;5111783;28;20575;-48
2024/01/31 08:50:05;;;;;;;22.67;11.85;;;7.50;99.90;;;;;;5111591;28;20161;-49
2024/01/31 08:52:32;;;;;;;24.17;11.48;;;7.50;99.90;;;;;;5112213;28;20204;-50
2024/01/31 08:54:57;;;;;;;25.20;10.65;;;7.50;99.90;;;;;;5112377;28;20596;-59
2024/01/31 08:57:23;;;;;;;26.35;11.70;;;7.50;99.90;;;;;;5111461;28;20315;-60
2024/01/31 08:59:49;;;;;;;14.63;8.38;;;7.50;99.90;;;;;;5111409;28;20236;-55
2024/01/31 09:02:15;;;;;;;20.65;10.13;;;7.50;99.90;;;;;;5111670;28;20243;-59
2024/01/31 09:04:40;;;;;;;18.55;9.23;;;7.50;99.90;;;;;;5111785;28;20180;-59
2024/01/31 09:07:06;;;;;;;17.48;10.02;;;7.50;99.90;;;;;;5111760;27;20169;-60
2024/01/31 09:09:33;;;;;;;21.38;9.38;;;7.50;99.90;;;;;;5112369;28;20168;-57
2024/01/31 09:11:59;;;;;;;20.30;10.55;;;7.50;99.90;;;;;;5111799;28;20253;-55
2024/01/31 09:14:24;;;;;;;26.65;11.63;;;7.60;99.90;;;;;;5111333;28;20243;-61
2024/01/31 09:16:50;;;;;;;29.70;13.73;;;7.60;99.90;;;;;;5111599;28;20200;-49
2024/01/31 09:19:15;;;;;;;26.27;12.88;;;7.60;99.90;;;;;;5111100;28;20165;-60
2024/01/31 09:21:41;;;;;;;24.58;13.07;;;7.60;99.90;;;;;;5111407;28;20268;-54
2024/01/31 09:24:08;;;;;;;23.25;13.55;;;7.60;99.90;;;;;;5111595;28;20168;-59
2024/01/31 09:26:33;;;;;;;31.15;15.05;;;7.60;99.90;;;;;;5111995;28;20176;-48
2024/01/31 09:28:59;;;;;;;28.17;15.98;;;7.70;99.90;;;;;;5110903;28;20624;-49
2024/01/31 09:31:26;;;;;;;30.05;15.95;;;7.70;99.90;;;;;;5111069;28;20272;-48
2024/01/31 09:33:53;;;;;;;28.90;14.82;;;7.70;99.90;;;;;;5111110;28;20542;-52
2024/01/31 09:36:19;;;;;;;31.63;15.65;;;7.70;99.90;;;;;;5110933;28;20172;-53
2024/01/31 09:38:47;;;;;;;28.30;16.05;;;7.70;99.90;;;;;;5111195;27;20589;-58
2024/01/31 09:41:16;;;;;;;26.48;15.15;;;7.70;99.90;;;;;;5110870;28;20681;-52
2024/01/31 09:43:43;;;;;;;29.85;16.95;;;7.60;99.90;;;;;;5110527;28;20517;-46
2024/01/31 09:46:09;;;;;;;32.97;16.75;;;7.60;99.90;;;;;;5110517;28;20160;-52
2024/01/31 09:48:36;;;;;;;31.30;15.60;;;7.60;99.90;;;;;;5110412;28;20176;-44
2024/01/31 09:51:02;;;;;;;30.52;16.10;;;7.60;99.90;;;;;;5111051;28;20208;-52
2024/01/31 09:53:33;;;;;;;30.92;15.52;;;7.60;99.90;;;;;;5110632;28;20177;-49
2024/01/31 09:55:59;;;;;;;28.02;16.52;;;7.60;99.90;;;;;;5110369;28;20251;-47
2024/01/31 09:58:25;;;;;;;32.50;16.30;;;7.70;99.90;;;;;;5110286;28;20212;-45
2024/01/31 10:00:52;;;;;;;33.95;16.85;;;7.60;99.90;;;;;;5110227;28;20608;-44
2024/01/31 10:03:17;;;;;;;32.15;15.70;;;7.60;99.90;;;;;;5110291;28;20165;-49
2024/01/31 10:05:43;;;;;;;31.05;15.43;;;7.70;99.90;;;;;;5110200;28;20165;-51
2024/01/31 10:08:10;;;;;;;33.63;16.65;;;7.80;99.90;;;;;;5110901;28;20165;-49
2024/01/31 10:10:37;;;;;;;30.08;17.13;;;7.80;99.90;;;;;;5110433;28;20211;-50
2024/01/31 10:13:03;;;;;;;30.15;16.55;;;7.80;99.90;;;;;;5110661;28;20700;-48
2024/01/31 10:15:31;;;;;;;25.23;16.88;;;7.80;99.90;;;;;;5110189;28;20509;-49
2024/01/31 10:17:57;;;;;;;29.17;16.40;;;7.80;99.90;;;;;;5110458;28;20653;-54
2024/01/31 10:20:23;;;;;;;28.77;17.38;;;7.90;99.90;;;;;;5109864;28;20161;-54
2024/01/31 10:22:48;;;;;;;24.80;16.55;;;7.80;99.90;;;;;;5110039;28;20203;-45
2024/01/31 10:25:17;;;;;;;33.03;16.85;;;7.90;99.90;;;;;;5109796;28;20169;-49
2024/01/31 10:27:45;;;;;;;27.92;15.55;;;7.90;99.90;;;;;;5110168;28;20200;-52
2024/01/31 10:30:12;;;;;;;27.00;16.40;;;7.90;99.90;;;;;;5109707;28;20249;-53
2024/01/31 10:32:38;;;;;;;28.52;15.25;;;7.90;99.90;;;;;;5109946;28;20267;-52
2024/01/31 10:35:05;;;;;;;26.35;14.77;;;7.90;99.90;;;;;;5110603;28;20309;-53
2024/01/31 10:37:31;;;;;;;24.85;14.15;;;7.90;99.90;;;;;;5110804;28;20161;-47
2024/01/31 10:39:58;;;;;;;26.70;13.85;;;7.90;99.90;;;;;;5110166;28;20164;-48
2024/01/31 10:42:24;;;;;;;23.08;13.10;;;7.90;99.90;;;;;;5110461;28;20180;-50
2024/01/31 10:44:51;;;;;;;26.17;13.27;;;8.00;99.90;;;;;;5109797;28;20255;-54
2024/01/31 10:47:16;;;;;;;21.63;14.27;;;7.90;99.90;;;;;;5109630;28;20651;-50
2024/01/31 10:49:42;;;;;;;28.10;15.45;;;8.00;99.90;;;;;;5109722;28;20175;-50
2024/01/31 10:52:11;;;;;;;26.25;15.52;;;8.00;99.90;;;;;;5109704;28;20706;-46
2024/01/31 10:54:41;;;;;;;23.90;14.57;;;8.20;99.90;;;;;;5109866;28;20675;-47
2024/01/31 10:57:07;;;;;;;28.13;17.25;;;8.20;99.90;;;;;;5109347;28;20212;-45
2024/01/31 10:59:37;;;;;;;29.58;16.05;;;8.30;99.90;;;;;;5111993;28;20511;-55
2024/01/31 11:02:03;;;;;;;24.02;14.13;;;8.30;99.90;;;;;;5114115;28;20172;-48
2024/01/31 11:04:28;;;;;;;16.98;11.65;;;8.40;99.90;;;;;;5113688;28;20164;-45
2024/01/31 11:06:59;;;;;;;18.38;12.05;;;8.30;99.90;;;;;;5112444;28;20183;-46
2024/01/31 11:09:26;;;;;;;10.13;6.30;;;8.40;99.90;;;;;;5113585;28;20157;-46
2024/01/31 11:12:12;;;;;;;7.32;5.95;;;8.30;99.90;;;;;;5113627;27;20215;-55
2024/01/31 11:14:42;;;;;;;7.82;4.85;;;8.40;99.90;;;;;;5113332;28;20164;-56
2024/01/31 11:17:14;;;;;;;6.60;5.60;;;8.40;99.90;;;;;;5113260;28;20203;-56
2024/01/31 11:19:48;;;;;;;5.82;4.60;;;8.50;99.90;;;;;;5113348;28;20164;-56
2024/01/31 11:22:14;;;;;;;6.32;4.53;;;8.50;99.90;;;;;;5113654;28;20557;-53
2024/01/31 11:24:49;;;;;;;7.03;4.20;;;8.50;99.90;;;;;;5113285;28;20161;-49
2024/01/31 11:27:16;;;;;;;5.45;4.35;;;8.50;99.90;;;;;;5113170;28;20497;-55
2024/01/31 11:29:43;;;;;;;7.40;5.63;;;8.50;99.90;;;;;;5113170;28;20167;-52
2024/01/31 11:32:09;;;;;;;7.18;5.32;;;8.60;99.90;;;;;;5113410;28;20230;-55
2024/01/31 11:34:36;;;;;;;8.10;5.78;;;8.60;99.90;;;;;;5113837;28;20176;-53
2024/01/31 11:37:01;;;;;;;10.95;5.78;;;8.50;99.90;;;;;;5114068;28;20663;-50
2024/01/31 11:39:27;;;;;;;6.95;5.43;;;8.50;99.90;;;;;;5113461;28;20194;-53
2024/01/31 11:41:54;;;;;;;7.63;4.85;;;8.50;99.90;;;;;;5113308;28;20640;-58
2024/01/31 11:44:19;;;;;;;6.05;5.05;;;8.50;99.90;;;;;;5113244;28;20196;-52
2024/01/31 11:46:45;;;;;;;3.90;3.53;;;8.50;99.90;;;;;;5113126;28;20632;-57
2024/01/31 11:49:11;;;;;;;3.85;3.05;;;8.40;99.90;;;;;;5112797;28;20161;-55
2024/01/31 11:51:37;;;;;;;5.97;3.92;;;8.40;99.90;;;;;;5112657;28;20200;-58
2024/01/31 11:54:04;;;;;;;12.82;7.95;;;8.40;99.90;;;;;;5113330;28;20644;-54
2024/01/31 11:56:29;;;;;;;6.22;4.05;;;8.40;99.90;;;;;;5111770;28;20248;-48
2024/01/31 11:58:57;;;;;;;6.32;3.90;;;8.50;99.90;;;;;;5112983;28;20216;-48
2024/01/31 12:01:24;;;;;;;5.22;4.03;;;8.40;99.90;;;;;;5112989;28;20294;-50
2024/01/31 12:03:50;;;;;;;5.68;4.35;;;8.40;99.90;;;;;;5113172;28;20172;-48
2024/01/31 12:06:19;;;;;;;5.40;4.07;;;8.40;99.90;;;;;;5112889;28;20584;-48
2024/01/31 12:08:48;;;;;;;5.18;4.30;;;8.40;99.90;;;;;;5113105;28;20242;-57
2024/01/31 12:11:17;;;;;;;14.70;5.15;;;8.50;99.90;;;;;;5112585;28;20208;-57
2024/01/31 12:13:46;;;;;;;5.90;4.63;;;8.50;99.90;;;;;;5112590;28;20171;-56
2024/01/31 12:16:12;;;;;;;4.93;4.25;;;8.50;99.90;;;;;;5112827;28;20169;-57
2024/01/31 12:18:39;;;;;;;20.33;5.82;;;8.50;99.90;;;;;;5112857;28;20200;-57
2024/01/31 12:21:06;;;;;;;6.18;4.68;;;8.40;99.90;;;;;;5112817;28;20221;-53
2024/01/31 12:23:32;;;;;;;9.68;5.30;;;8.40;99.90;;;;;;5113160;28;20655;-57
2024/01/31 12:25:58;;;;;;;10.77;5.10;;;8.40;99.90;;;;;;5112603;28;20203;-57
2024/01/31 12:28:25;;;;;;;9.65;4.63;;;8.30;99.90;;;;;;5112525;28;20643;-51
2024/01/31 12:30:51;;;;;;;17.60;5.30;;;8.30;99.90;;;;;;5112424;28;20200;-57
2024/01/31 12:33:20;;;;;;;8.55;4.55;;;8.30;99.90;;;;;;5112470;28;20176;-56
2024/01/31 12:35:46;;;;;;;15.27;5.43;;;8.30;99.90;;;;;;5112371;28;20172;-57
2024/01/31 12:38:12;;;;;;;7.35;4.13;;;8.30;99.90;;;;;;5112097;28;20172;-57
2024/01/31 12:40:38;;;;;;;6.60;5.07;;;8.20;99.90;;;;;;5112067;28;20713;-55